createdAt,value
2023-03-17T00:01:54.784Z,75.59
2023-03-17T00:04:26.692Z,75.31
2023-03-17T00:06:54.560Z,75.01
2023-03-17T00:09:23.977Z,75.16
2023-03-17T00:11:50.906Z,75.24
2023-03-17T00:14:21.384Z,74.95
2023-03-17T00:16:50.257Z,75.04
2023-03-17T00:19:31.387Z,75.90
2023-03-17T00:22:01.398Z,75.16
2023-03-17T00:24:29.329Z,75.52
2023-03-17T00:26:56.245Z,75.08
2023-03-17T00:29:25.512Z,75.06
2023-03-17T00:31:52.349Z,75.13
2023-03-17T00:34:21.500Z,75.41
2023-03-17T00:36:49.945Z,75.86
2023-03-17T00:39:17.025Z,75.58
2023-03-17T00:44:12.462Z,75.84
2023-03-17T00:46:42.077Z,75.36
2023-03-17T00:49:21.314Z,75.30
2023-03-17T00:51:49.831Z,75.74
2023-03-17T00:54:17.822Z,75.49
2023-03-17T00:56:48.047Z,75.73
2023-03-17T00:59:32.506Z,74.96
2023-03-17T01:01:59.804Z,75.07
2023-03-17T01:04:26.528Z,75.71
2023-03-17T01:06:54.151Z,75.36
2023-03-17T01:09:25.936Z,75.24
2023-03-17T01:11:55.740Z,74.93
2023-03-17T01:14:24.983Z,75.27
2023-03-17T01:16:55.454Z,74.96
2023-03-17T01:19:22.410Z,75.30
2023-03-17T01:21:52.388Z,75.17
2023-03-17T01:24:19.758Z,75.32
2023-03-17T01:26:46.866Z,75.50
2023-03-17T01:29:13.941Z,75.56
2023-03-17T01:31:41.263Z,74.91
2023-03-17T01:34:08.049Z,75.68
2023-03-17T01:36:35.778Z,74.98
2023-03-17T01:39:05.440Z,75.19
2023-03-17T01:41:36.540Z,75.58
2023-03-17T01:44:04.188Z,75.04
2023-03-17T01:46:31.009Z,75.04
2023-03-17T01:49:06.920Z,75.07
2023-03-17T01:51:36.680Z,75.62
2023-03-17T01:54:10.650Z,75.53
2023-03-17T01:56:41.788Z,75.00
2023-03-17T01:59:11.630Z,75.86
2023-03-17T02:01:43.929Z,75.97
2023-03-17T02:04:14.259Z,75.59
2023-03-17T02:06:55.154Z,75.95
2023-03-17T02:09:24.037Z,75.47
2023-03-17T02:11:53.391Z,76.18
2023-03-17T02:14:20.538Z,76.65
2023-03-17T02:16:47.696Z,76.49
2023-03-17T02:19:14.340Z,76.64
2023-03-17T02:21:47.811Z,76.49
2023-03-17T02:24:26.575Z,76.77
2023-03-17T02:26:55.731Z,76.19
2023-03-17T02:29:25.704Z,76.58
2023-03-17T02:31:55.191Z,75.99
2023-03-17T02:34:21.838Z,76.46
2023-03-17T02:36:48.646Z,76.75
2023-03-17T02:39:18.090Z,76.46
2023-03-17T02:41:44.740Z,76.54
2023-03-17T02:44:11.476Z,76.61
2023-03-17T02:46:38.188Z,76.46
2023-03-17T02:49:05.600Z,75.77
2023-03-17T02:51:32.384Z,76.41
2023-03-17T02:54:01.248Z,76.01
2023-03-17T02:56:31.050Z,76.04
2023-03-17T02:59:00.419Z,75.73
2023-03-17T03:01:27.474Z,76.25
2023-03-17T03:03:54.337Z,76.05
2023-03-17T03:06:21.239Z,75.70
2023-03-17T03:08:47.930Z,76.34
2023-03-17T03:11:14.583Z,75.69
2023-03-17T03:13:43.715Z,75.53
2023-03-17T03:16:10.445Z,75.62
2023-03-17T03:18:37.859Z,75.49
2023-03-17T03:21:05.442Z,76.09
2023-03-17T03:23:32.107Z,75.88
2023-03-17T03:25:58.865Z,76.09
2023-03-17T03:28:25.886Z,75.89
2023-03-17T03:30:55.170Z,75.71
2023-03-17T03:33:24.892Z,75.73
2023-03-17T03:35:54.027Z,76.24
2023-03-17T03:38:20.734Z,75.79
2023-03-17T03:40:49.829Z,75.43
2023-03-17T03:43:23.240Z,75.34
2023-03-17T03:45:50.589Z,76.03
2023-03-17T03:48:17.942Z,75.84
2023-03-17T03:50:47.745Z,76.10
2023-03-17T03:53:15.310Z,75.60
2023-03-17T03:55:42.110Z,76.21
2023-03-17T03:58:11.435Z,76.13
2023-03-17T04:00:38.403Z,76.47
2023-03-17T04:03:05.324Z,76.18
2023-03-17T04:05:32.079Z,76.34
2023-03-17T04:07:58.844Z,76.23
2023-03-17T04:10:25.462Z,76.25
2023-03-17T04:12:52.194Z,76.45
2023-03-17T04:15:20.502Z,76.51
2023-03-17T04:17:47.600Z,76.91
2023-03-17T04:20:15.978Z,76.63
2023-03-17T04:22:43.389Z,76.33
2023-03-17T04:25:13.660Z,76.69
2023-03-17T04:27:43.052Z,75.93
2023-03-17T04:30:13.965Z,76.94
2023-03-17T04:32:41.856Z,76.89
2023-03-17T04:35:13.037Z,76.07
2023-03-17T04:37:39.719Z,76.18
2023-03-17T04:40:10.078Z,76.48
2023-03-17T04:42:37.876Z,76.70
2023-03-17T04:45:06.457Z,76.71
2023-03-17T04:47:36.003Z,76.17
2023-03-17T04:50:02.721Z,76.29
2023-03-17T04:52:29.554Z,76.57
2023-03-17T04:54:58.565Z,75.72
2023-03-17T04:57:27.582Z,76.42
2023-03-17T04:59:57.777Z,76.43
2023-03-17T05:02:29.279Z,76.21
2023-03-17T05:04:56.159Z,76.00
2023-03-17T05:07:25.665Z,75.65
2023-03-17T05:09:52.270Z,75.70
2023-03-17T05:12:19.003Z,76.58
2023-03-17T05:14:45.596Z,76.10
2023-03-17T05:17:12.324Z,76.04
2023-03-17T05:19:41.065Z,76.32
2023-03-17T05:22:10.285Z,76.66
2023-03-17T05:24:36.943Z,76.25
2023-03-17T05:27:06.159Z,76.42
2023-03-17T05:29:32.850Z,77.08
2023-03-17T05:31:59.521Z,76.88
2023-03-17T05:34:27.145Z,76.79
2023-03-17T05:36:54.456Z,76.62
2023-03-17T05:39:21.083Z,77.00
2023-03-17T05:41:48.129Z,76.39
2023-03-17T05:44:14.783Z,76.39
2023-03-17T05:46:42.084Z,76.96
2023-03-17T05:49:10.956Z,76.74
2023-03-17T05:51:37.581Z,76.89
2023-03-17T05:54:04.463Z,76.03
2023-03-17T05:56:33.864Z,76.34
2023-03-17T05:59:01.754Z,76.50
2023-03-17T06:01:29.575Z,76.69
2023-03-17T06:03:56.695Z,76.97
2023-03-17T06:06:24.700Z,76.36
2023-03-17T06:08:51.959Z,76.50
2023-03-17T06:11:20.802Z,76.63
2023-03-17T06:13:47.971Z,76.50
2023-03-17T06:16:15.375Z,76.91
2023-03-17T06:18:47.256Z,76.91
2023-03-17T06:21:14.477Z,77.03
2023-03-17T06:23:41.214Z,76.40
2023-03-17T06:26:11.783Z,76.70
2023-03-17T06:28:38.406Z,76.86
2023-03-17T06:31:08.948Z,77.13
2023-03-17T06:33:35.845Z,76.74
2023-03-17T06:36:03.488Z,76.39
2023-03-17T06:38:30.222Z,76.73
2023-03-17T06:40:58.047Z,76.53
2023-03-17T06:43:27.292Z,76.20
2023-03-17T06:45:53.987Z,76.82
2023-03-17T06:48:20.742Z,77.27
2023-03-17T06:50:47.838Z,76.90
2023-03-17T06:53:14.777Z,76.69
2023-03-17T06:55:42.218Z,76.89
2023-03-17T06:58:10.690Z,77.41
2023-03-17T07:00:38.481Z,76.98
2023-03-17T07:03:06.083Z,76.66
2023-03-17T07:05:34.934Z,77.32
2023-03-17T07:08:01.583Z,76.74
2023-03-17T07:10:28.248Z,77.34
2023-03-17T07:12:55.184Z,76.83
2023-03-17T07:15:26.710Z,77.37
2023-03-17T07:17:55.752Z,76.93
2023-03-17T07:20:25.199Z,76.93
2023-03-17T07:22:51.862Z,77.56
2023-03-17T07:25:20.818Z,77.62
2023-03-17T07:27:47.499Z,77.17
2023-03-17T07:30:19.079Z,77.48
2023-03-17T07:32:46.940Z,77.87
2023-03-17T07:35:15.585Z,78.08
2023-03-17T07:37:43.093Z,78.19
2023-03-17T07:40:11.002Z,78.31
2023-03-17T07:42:40.248Z,78.44
2023-03-17T07:45:08.102Z,78.12
2023-03-17T07:47:34.730Z,78.22
2023-03-17T07:50:04.246Z,78.14
2023-03-17T07:52:31.033Z,78.25
2023-03-17T07:54:58.488Z,78.62
2023-03-17T07:57:25.263Z,78.35
2023-03-17T07:59:52.088Z,78.41
2023-03-17T08:02:19.736Z,78.06
2023-03-17T08:04:46.574Z,77.89
2023-03-17T08:07:14.736Z,78.19
2023-03-17T08:09:43.576Z,78.44
2023-03-17T08:12:13.894Z,78.27
2023-03-17T08:14:44.631Z,78.31
2023-03-17T08:17:11.717Z,78.26
2023-03-17T08:19:38.403Z,77.87
2023-03-17T08:22:05.199Z,78.08
2023-03-17T08:24:32.698Z,78.13
2023-03-17T08:27:00.848Z,78.40
2023-03-17T08:29:29.026Z,77.96
2023-03-17T08:31:56.081Z,78.01
2023-03-17T08:34:24.252Z,78.48
2023-03-17T08:36:53.317Z,78.05
2023-03-17T08:39:20.691Z,78.13
2023-03-17T08:41:47.808Z,78.15
2023-03-17T08:44:14.961Z,78.18
2023-03-17T08:46:41.922Z,77.80
2023-03-17T08:49:12.677Z,77.48
2023-03-17T08:51:44.137Z,77.86
2023-03-17T08:54:15.413Z,77.33
2023-03-17T08:56:42.658Z,77.02
2023-03-17T08:59:10.591Z,77.39
2023-03-17T09:01:40.353Z,77.16
2023-03-17T09:04:07.241Z,77.65
2023-03-17T09:06:33.885Z,77.07
2023-03-17T09:09:00.567Z,77.07
2023-03-17T09:11:29.293Z,76.54
2023-03-17T09:13:56.591Z,76.60
2023-03-17T09:16:27.078Z,75.87
2023-03-17T09:18:53.890Z,76.53
2023-03-17T09:21:21.369Z,75.78
2023-03-17T09:23:48.212Z,76.03
2023-03-17T09:26:14.938Z,75.87
2023-03-17T09:28:42.034Z,76.05
2023-03-17T09:31:12.534Z,75.79
2023-03-17T09:33:40.744Z,76.41
2023-03-17T09:36:09.173Z,75.99
2023-03-17T09:38:37.270Z,76.16
2023-03-17T09:41:08.415Z,75.53
2023-03-17T09:43:58.710Z,75.75
2023-03-17T09:46:48.592Z,76.18
2023-03-17T09:49:25.299Z,75.85
2023-03-17T09:51:52.061Z,75.97
2023-03-17T09:54:27.549Z,75.71
2023-03-17T09:57:12.644Z,76.42
2023-03-17T09:59:45.968Z,76.07
2023-03-17T10:02:25.449Z,76.30
2023-03-17T10:04:54.727Z,76.41
2023-03-17T10:07:28.661Z,76.75
2023-03-17T10:10:12.565Z,76.78
2023-03-17T10:12:52.705Z,77.11
2023-03-17T10:15:38.897Z,76.21
2023-03-17T10:18:14.857Z,76.92
2023-03-17T10:21:06.278Z,76.15
2023-03-17T10:23:36.535Z,76.59
2023-03-17T10:26:17.428Z,76.31
2023-03-17T10:28:44.432Z,76.27
2023-03-17T10:31:18.755Z,76.57
2023-03-17T10:33:52.453Z,77.31
2023-03-17T10:36:34.992Z,76.56
2023-03-17T10:39:05.730Z,76.81
2023-03-17T10:41:36.298Z,76.67
2023-03-17T10:44:10.104Z,76.64
2023-03-17T10:46:38.662Z,77.09
2023-03-17T10:49:16.470Z,76.89
2023-03-17T10:51:46.461Z,77.51
2023-03-17T10:54:18.716Z,76.79
2023-03-17T10:56:52.098Z,77.00
2023-03-17T10:59:32.572Z,76.97
2023-03-17T11:02:01.532Z,77.37
2023-03-17T11:04:37.366Z,77.25
2023-03-17T11:07:15.418Z,77.48
2023-03-17T11:09:42.411Z,77.69
2023-03-17T11:12:50.676Z,77.43
2023-03-17T11:15:20.247Z,77.98
2023-03-17T11:18:04.577Z,77.99
2023-03-17T11:20:48.351Z,77.79
2023-03-17T11:23:47.696Z,78.12
2023-03-17T11:26:24.376Z,77.73
2023-03-17T11:29:01.269Z,77.62
2023-03-17T11:32:12.589Z,77.81
2023-03-17T11:35:18.969Z,77.14
2023-03-17T11:38:09.796Z,77.82
2023-03-17T11:41:02.569Z,77.66
2023-03-17T11:43:46.855Z,77.33
2023-03-17T11:46:24.849Z,77.14
2023-03-17T11:48:57.403Z,77.38
2023-03-17T11:51:45.379Z,76.49
2023-03-17T11:54:24.825Z,76.28
2023-03-17T11:56:57.760Z,76.31
2023-03-17T11:59:32.723Z,76.28
2023-03-17T12:02:24.152Z,75.88
2023-03-17T12:05:07.000Z,76.59
2023-03-17T12:07:53.254Z,76.49
2023-03-17T12:10:47.865Z,75.65
2023-03-17T12:13:22.141Z,73.90
2023-03-17T12:15:53.184Z,73.57
2023-03-17T12:18:47.726Z,73.73
2023-03-17T12:21:38.840Z,72.76
2023-03-17T12:24:20.252Z,72.29
2023-03-17T12:27:11.797Z,71.73
2023-03-17T12:29:47.394Z,71.76
2023-03-17T12:32:26.321Z,70.96
2023-03-17T12:34:57.558Z,70.60
2023-03-17T12:37:27.737Z,70.50
2023-03-17T12:40:01.907Z,70.20
2023-03-17T12:43:07.441Z,68.67
2023-03-17T12:46:03.051Z,68.57
2023-03-17T12:48:48.517Z,69.17
2023-03-17T12:51:34.083Z,69.05
2023-03-17T12:54:01.041Z,69.22
2023-03-17T12:56:31.274Z,69.32
2023-03-17T12:59:06.202Z,68.28
2023-03-17T13:01:44.721Z,68.67
2023-03-17T13:04:38.378Z,68.23
2023-03-17T13:07:25.775Z,67.66
2023-03-17T13:09:55.563Z,67.35
2023-03-17T13:12:43.563Z,67.26
2023-03-17T13:15:37.492Z,67.31
2023-03-17T13:18:36.342Z,67.43
2023-03-17T13:21:03.011Z,67.41
2023-03-17T13:23:44.972Z,67.20
2023-03-17T13:26:18.761Z,66.62
2023-03-17T13:28:49.213Z,66.60
2023-03-17T13:31:28.613Z,66.68
2023-03-17T13:34:05.048Z,66.63
2023-03-17T13:36:38.690Z,65.78
2023-03-17T13:39:31.147Z,66.81
2023-03-17T13:42:15.624Z,66.81
2023-03-17T13:45:02.963Z,67.09
2023-03-17T13:47:39.071Z,67.54
2023-03-17T13:50:12.722Z,66.95
2023-03-17T13:52:48.625Z,66.66
2023-03-17T13:55:18.317Z,66.73
2023-03-17T13:58:09.216Z,66.93
2023-03-17T14:00:44.349Z,66.76
2023-03-17T14:03:25.090Z,67.16
2023-03-17T14:05:55.407Z,67.65
2023-03-17T14:08:52.512Z,67.21
2023-03-17T14:11:47.934Z,67.67
2023-03-17T14:14:31.489Z,66.96
2023-03-17T14:17:30.309Z,67.96
2023-03-17T14:20:15.708Z,67.38
2023-03-17T14:22:49.016Z,67.42
2023-03-17T14:25:26.860Z,67.65
2023-03-17T14:27:57.606Z,67.68
2023-03-17T14:30:29.035Z,67.79
2023-03-17T14:33:27.225Z,67.01
2023-03-17T14:35:57.753Z,67.06
2023-03-17T14:38:24.459Z,66.36
2023-03-17T14:41:01.219Z,66.07
2023-03-17T14:43:27.984Z,65.60
2023-03-17T14:46:21.575Z,65.62
2023-03-17T14:48:56.958Z,65.63
2023-03-17T14:51:25.367Z,65.25
2023-03-17T14:53:54.070Z,65.76
2023-03-17T14:56:25.754Z,65.57
2023-03-17T14:58:52.985Z,65.48
2023-03-17T15:01:35.282Z,65.12
2023-03-17T15:04:12.716Z,65.27
2023-03-17T15:07:03.007Z,64.89
2023-03-17T15:09:34.402Z,64.78
2023-03-17T15:12:13.027Z,64.36
2023-03-17T15:14:43.134Z,63.99
2023-03-17T15:17:20.218Z,63.48
2023-03-17T15:19:57.401Z,63.45
2023-03-17T15:22:26.008Z,63.57
2023-03-17T15:25:05.078Z,63.29
2023-03-17T15:27:32.005Z,63.42
2023-03-17T15:29:59.118Z,63.50
2023-03-17T15:32:29.249Z,63.26
2023-03-17T15:35:01.941Z,63.40
2023-03-17T15:37:31.984Z,62.47
2023-03-17T15:40:00.443Z,61.73
2023-03-17T15:42:32.702Z,61.40
2023-03-17T15:45:03.907Z,61.64
2023-03-17T15:47:36.980Z,61.57
2023-03-17T15:50:13.968Z,60.79
2023-03-17T15:52:41.128Z,61.05
2023-03-17T15:55:25.511Z,60.56
2023-03-17T15:57:55.683Z,60.20
2023-03-17T16:00:24.510Z,60.63
2023-03-17T16:02:59.994Z,60.03
2023-03-17T16:05:28.433Z,59.36
2023-03-17T16:07:55.805Z,60.21
2023-03-17T16:10:25.609Z,59.96
2023-03-17T16:12:52.863Z,59.75
2023-03-17T16:15:23.710Z,59.80
2023-03-17T16:18:02.478Z,59.40
2023-03-17T16:20:40.696Z,59.77
2023-03-17T16:23:14.269Z,60.18
2023-03-17T16:25:41.762Z,60.60
2023-03-17T16:28:20.854Z,60.37
2023-03-17T16:30:49.415Z,61.17
2023-03-17T16:33:22.543Z,61.07
2023-03-17T16:35:50.665Z,61.24
2023-03-17T16:38:19.688Z,61.99
2023-03-17T16:40:48.790Z,61.82
2023-03-17T16:43:28.213Z,62.57
2023-03-17T16:45:57.845Z,62.38
2023-03-17T16:48:25.280Z,62.69
2023-03-17T16:50:52.161Z,62.74
2023-03-17T16:53:18.989Z,62.93
2023-03-17T16:55:46.107Z,63.14
2023-03-17T16:58:19.370Z,63.47
2023-03-17T17:00:50.650Z,64.10
2023-03-17T17:03:17.765Z,64.12
2023-03-17T17:05:44.804Z,64.44
2023-03-17T17:08:12.074Z,64.45
2023-03-17T17:10:39.588Z,64.88
2023-03-17T17:13:08.120Z,64.42
2023-03-17T17:15:36.988Z,65.58
2023-03-17T17:18:22.009Z,65.69
2023-03-17T17:20:49.692Z,65.44
2023-03-17T17:23:19.491Z,65.69
2023-03-17T17:25:48.668Z,66.76
2023-03-17T17:28:18.763Z,66.33
2023-03-17T17:30:52.202Z,66.74
2023-03-17T17:33:22.458Z,66.86
2023-03-17T17:35:49.949Z,67.56
2023-03-17T17:38:21.319Z,67.35
2023-03-17T17:40:51.023Z,67.87
2023-03-17T17:43:18.327Z,67.95
2023-03-17T17:45:48.792Z,67.75
2023-03-17T17:48:17.631Z,68.38
2023-03-17T17:50:44.830Z,67.86
2023-03-17T17:53:12.532Z,68.50
2023-03-17T17:55:44.117Z,68.91
2023-03-17T17:58:15.981Z,68.62
2023-03-17T18:00:42.975Z,69.20
2023-03-17T18:03:10.322Z,69.30
2023-03-17T18:05:37.291Z,68.76
2023-03-17T18:08:05.148Z,69.25
2023-03-17T18:10:32.413Z,68.89
2023-03-17T18:12:59.759Z,68.72
2023-03-17T18:15:29.102Z,69.33
2023-03-17T18:17:56.208Z,69.00
2023-03-17T18:20:24.418Z,69.76
2023-03-17T18:22:54.880Z,69.17
2023-03-17T18:25:21.650Z,69.74
2023-03-17T18:27:48.622Z,70.46
2023-03-17T18:30:26.859Z,70.45
2023-03-17T18:33:00.683Z,70.38
2023-03-17T18:35:28.736Z,70.04
2023-03-17T18:37:57.483Z,70.42
2023-03-17T18:40:25.675Z,69.97
2023-03-17T18:42:52.624Z,70.46
2023-03-17T18:45:19.453Z,70.57
2023-03-17T18:47:46.097Z,69.87
2023-03-17T18:50:14.557Z,70.85
2023-03-17T18:52:45.802Z,70.61
2023-03-17T18:55:13.979Z,70.95
2023-03-17T18:57:44.244Z,70.99
2023-03-17T19:00:14.131Z,70.75
2023-03-17T19:02:40.929Z,71.00
2023-03-17T19:05:07.850Z,71.91
2023-03-17T19:07:34.854Z,71.06
2023-03-17T19:10:01.648Z,71.11
2023-03-17T19:12:28.443Z,71.26
2023-03-17T19:14:57.414Z,71.48
2023-03-17T19:17:24.157Z,71.65
2023-03-17T19:19:53.343Z,71.87
2023-03-17T19:22:22.310Z,72.25
2023-03-17T19:24:50.361Z,71.87
2023-03-17T19:27:17.794Z,72.04
2023-03-17T19:29:44.674Z,71.88
2023-03-17T19:32:11.415Z,72.28
2023-03-17T19:34:40.668Z,72.30
2023-03-17T19:37:10.165Z,71.73
2023-03-17T19:39:37.800Z,72.10
2023-03-17T19:42:07.537Z,72.33
2023-03-17T19:44:34.238Z,71.78
2023-03-17T19:47:05.039Z,71.85
2023-03-17T19:49:34.739Z,72.16
2023-03-17T19:52:01.621Z,71.88
2023-03-17T19:54:28.310Z,72.11
2023-03-17T19:56:54.963Z,72.36
2023-03-17T19:59:21.689Z,72.04
2023-03-17T20:01:50.762Z,72.05
2023-03-17T20:04:19.650Z,71.81
2023-03-17T20:06:48.996Z,71.86
2023-03-17T20:09:16.098Z,71.77
2023-03-17T20:11:42.730Z,72.00
2023-03-17T20:14:12.018Z,71.84
2023-03-17T20:16:40.990Z,71.91
2023-03-17T20:19:08.363Z,71.81
2023-03-17T20:21:35.255Z,72.24
2023-03-17T20:24:04.408Z,71.80
2023-03-17T20:26:31.098Z,71.88
2023-03-17T20:28:58.318Z,72.10
2023-03-17T20:31:28.992Z,72.06
2023-03-17T20:33:57.036Z,72.04
2023-03-17T20:36:24.047Z,72.50
2023-03-17T20:38:50.920Z,72.04
2023-03-17T20:41:19.362Z,72.21
2023-03-17T20:43:47.376Z,72.19
2023-03-17T20:46:17.671Z,71.79
2023-03-17T20:48:48.801Z,71.59
2023-03-17T20:51:16.897Z,71.65
2023-03-17T20:53:47.611Z,71.54
2023-03-17T20:56:16.537Z,71.49
2023-03-17T20:58:45.431Z,72.14
2023-03-17T21:01:12.989Z,71.51
2023-03-17T21:03:44.310Z,71.69
2023-03-17T21:06:11.706Z,72.21
2023-03-17T21:08:44.317Z,71.82
2023-03-17T21:11:19.019Z,72.21
2023-03-17T21:13:46.136Z,72.17
2023-03-17T21:16:24.873Z,72.09
2023-03-17T21:18:54.476Z,72.03
2023-03-17T21:21:22.060Z,72.24
2023-03-17T21:23:48.838Z,71.97
2023-03-17T21:26:20.326Z,72.02
2023-03-17T21:28:50.532Z,72.05
2023-03-17T21:31:17.418Z,72.34
2023-03-17T21:33:44.539Z,71.97
2023-03-17T21:36:11.333Z,71.92
2023-03-17T21:38:38.108Z,72.10
2023-03-17T21:41:30.578Z,72.21
2023-03-17T21:43:58.130Z,72.02
2023-03-17T21:46:26.139Z,71.98
2023-03-17T21:48:56.112Z,71.81
2023-03-17T21:51:22.895Z,71.82
2023-03-17T21:53:49.550Z,72.15
2023-03-17T21:56:17.040Z,71.89
2023-03-17T21:58:43.738Z,71.89
2023-03-17T22:01:11.766Z,72.18
2023-03-17T22:03:40.016Z,71.64
2023-03-17T22:06:07.184Z,71.47
2023-03-17T22:08:34.686Z,71.45
2023-03-17T22:11:06.586Z,72.10
2023-03-17T22:13:33.296Z,71.45
2023-03-17T22:16:00.024Z,71.26
2023-03-17T22:18:27.167Z,71.12
2023-03-17T22:21:00.301Z,70.98
2023-03-17T22:23:28.980Z,70.83
2023-03-17T22:25:57.358Z,71.40
2023-03-17T22:28:26.797Z,70.65
2023-03-17T22:30:54.558Z,71.49
2023-03-17T22:33:21.206Z,71.26
2023-03-17T22:35:47.984Z,70.80
2023-03-17T22:38:14.759Z,71.21
2023-03-17T22:40:41.500Z,70.69
2023-03-17T22:43:08.315Z,71.09
2023-03-17T22:45:35.009Z,71.62
2023-03-17T22:48:04.308Z,71.66
2023-03-17T22:50:31.259Z,71.19
2023-03-17T22:52:58.111Z,71.76
2023-03-17T22:55:24.780Z,71.86
2023-03-17T22:57:51.627Z,71.79
2023-03-17T23:00:18.548Z,71.87
2023-03-17T23:02:47.889Z,71.86
2023-03-17T23:05:14.716Z,71.28
2023-03-17T23:07:50.370Z,71.33
2023-03-17T23:10:25.345Z,71.56
2023-03-17T23:12:52.506Z,71.24
2023-03-17T23:15:20.123Z,71.41
2023-03-17T23:17:49.029Z,71.31
2023-03-17T23:20:16.116Z,71.17
2023-03-17T23:22:42.757Z,71.76
2023-03-17T23:25:13.642Z,71.87
2023-03-17T23:27:45.177Z,72.13
2023-03-17T23:30:12.971Z,71.99
2023-03-17T23:32:40.816Z,72.55
2023-03-17T23:35:08.638Z,72.72
2023-03-17T23:37:36.177Z,72.76
2023-03-17T23:40:04.479Z,72.57
2023-03-17T23:42:31.458Z,72.53
2023-03-17T23:44:58.405Z,73.24
2023-03-17T23:47:26.498Z,72.24
2023-03-17T23:49:53.401Z,72.70
2023-03-17T23:52:21.975Z,72.64
2023-03-17T23:54:51.523Z,72.85
2023-03-17T23:57:18.265Z,72.25
2023-03-17T23:59:45.020Z,72.62
